Current Weather

Batten Intl

Racine, Wisconsin (KRAC)

Report from: Thursday, August 18, 2022 10:53 PM CDT
Current time: Thursday, August 18, 2022 11:41 PM CDT

Nearby weather
Weather history
Weather forecast

Temperature20.6°C (69.1°F)
Dew point15.6°C (60.1°F)
Winds Calm
Visibility10 mi. (16.1 km)
Clouds Sky clear
Altimeter29.95 in.Hg (1014 mB)
Relative humidity73 %
Density altitude866 ft. (264 m)
Sea-level pressure101.4 kPa (1014 mB, 29.93 in.Hg)
Remarks Fully automated report
Automated weather observing station with precipitation discriminator
Flight conditions Visual Meteorological Conditions
Raw dataKRAC 190353Z AUTO 00000KT 10SM CLR 21/16 A2995 RMK AO2 SLP136 T02060156
An unhandled exception has occurred. See browser dev tools for details. Reload 🗙